sensor_id;sensor_type;location;lat;lon;timestamp;temperature;humidity
52034;DHT22;38045;52.988;6.536;2023-06-19T00:01:47;21.90;98.00
52034;DHT22;38045;52.988;6.536;2023-06-19T00:04:13;21.90;98.00
52034;DHT22;38045;52.988;6.536;2023-06-19T00:06:38;21.90;98.10
52034;DHT22;38045;52.988;6.536;2023-06-19T00:09:04;21.80;98.00
52034;DHT22;38045;52.988;6.536;2023-06-19T00:11:30;21.80;98.20
52034;DHT22;38045;52.988;6.536;2023-06-19T00:13:56;21.80;98.50
52034;DHT22;38045;52.988;6.536;2023-06-19T00:16:21;21.80;98.50
52034;DHT22;38045;52.988;6.536;2023-06-19T00:18:50;21.80;98.30
52034;DHT22;38045;52.988;6.536;2023-06-19T00:21:17;21.80;98.30
52034;DHT22;38045;52.988;6.536;2023-06-19T00:23:42;21.70;98.30
52034;DHT22;38045;52.988;6.536;2023-06-19T00:26:08;21.70;98.40
52034;DHT22;38045;52.988;6.536;2023-06-19T00:28:34;21.70;98.20
52034;DHT22;38045;52.988;6.536;2023-06-19T00:31:00;21.70;98.30
52034;DHT22;38045;52.988;6.536;2023-06-19T00:33:25;21.60;98.30
52034;DHT22;38045;52.988;6.536;2023-06-19T00:35:51;21.60;98.30
52034;DHT22;38045;52.988;6.536;2023-06-19T00:38:17;21.60;98.20
52034;DHT22;38045;52.988;6.536;2023-06-19T00:40:43;21.60;98.30
52034;DHT22;38045;52.988;6.536;2023-06-19T00:43:08;21.60;98.30
52034;DHT22;38045;52.988;6.536;2023-06-19T00:45:36;21.60;98.20
52034;DHT22;38045;52.988;6.536;2023-06-19T00:48:04;21.60;98.20
52034;DHT22;38045;52.988;6.536;2023-06-19T00:50:30;21.60;98.20
52034;DHT22;38045;52.988;6.536;2023-06-19T00:52:57;21.60;98.00
52034;DHT22;38045;52.988;6.536;2023-06-19T00:55:26;21.60;98.00
52034;DHT22;38045;52.988;6.536;2023-06-19T00:57:53;21.60;97.90
52034;DHT22;38045;52.988;6.536;2023-06-19T01:00:20;21.60;97.80
52034;DHT22;38045;52.988;6.536;2023-06-19T01:02:46;21.60;97.80
52034;DHT22;38045;52.988;6.536;2023-06-19T01:05:12;21.60;97.70
52034;DHT22;38045;52.988;6.536;2023-06-19T01:10:16;21.60;97.80
52034;DHT22;38045;52.988;6.536;2023-06-19T01:12:49;21.50;97.40
52034;DHT22;38045;52.988;6.536;2023-06-19T01:15:17;21.50;97.30
52034;DHT22;38045;52.988;6.536;2023-06-19T01:17:45;21.50;97.30
52034;DHT22;38045;52.988;6.536;2023-06-19T01:20:12;21.60;97.30
52034;DHT22;38045;52.988;6.536;2023-06-19T01:22:38;21.50;97.30
52034;DHT22;38045;52.988;6.536;2023-06-19T01:25:04;21.50;97.20
52034;DHT22;38045;52.988;6.536;2023-06-19T01:27:31;21.60;97.10
52034;DHT22;38045;52.988;6.536;2023-06-19T01:29:58;21.50;97.00
52034;DHT22;38045;52.988;6.536;2023-06-19T01:32:50;21.60;96.80
52034;DHT22;38045;52.988;6.536;2023-06-19T01:35:21;21.60;96.40
52034;DHT22;38045;52.988;6.536;2023-06-19T01:37:47;21.60;96.00
52034;DHT22;38045;52.988;6.536;2023-06-19T01:40:14;21.50;96.30
52034;DHT22;38045;52.988;6.536;2023-06-19T01:42:41;21.60;96.20
52034;DHT22;38045;52.988;6.536;2023-06-19T01:45:09;21.60;96.00
52034;DHT22;38045;52.988;6.536;2023-06-19T01:47:35;21.70;96.20
52034;DHT22;38045;52.988;6.536;2023-06-19T01:50:00;21.60;95.90
52034;DHT22;38045;52.988;6.536;2023-06-19T01:52:26;21.60;95.70
52034;DHT22;38045;52.988;6.536;2023-06-19T01:54:52;21.70;95.30
52034;DHT22;38045;52.988;6.536;2023-06-19T01:57:18;21.70;95.40
52034;DHT22;38045;52.988;6.536;2023-06-19T01:59:43;21.70;95.40
52034;DHT22;38045;52.988;6.536;2023-06-19T02:02:09;21.70;95.70
52034;DHT22;38045;52.988;6.536;2023-06-19T02:04:36;21.60;95.30
52034;DHT22;38045;52.988;6.536;2023-06-19T02:07:01;21.70;95.40
52034;DHT22;38045;52.988;6.536;2023-06-19T02:09:27;21.70;95.30
52034;DHT22;38045;52.988;6.536;2023-06-19T02:11:53;21.70;94.80
52034;DHT22;38045;52.988;6.536;2023-06-19T02:14:19;21.70;94.60
52034;DHT22;38045;52.988;6.536;2023-06-19T02:16:44;21.80;94.50
52034;DHT22;38045;52.988;6.536;2023-06-19T02:19:10;21.80;94.80
52034;DHT22;38045;52.988;6.536;2023-06-19T02:21:36;21.70;94.80
52034;DHT22;38045;52.988;6.536;2023-06-19T02:24:02;21.70;94.80
52034;DHT22;38045;52.988;6.536;2023-06-19T02:26:28;21.80;94.80
52034;DHT22;38045;52.988;6.536;2023-06-19T02:28:55;21.70;94.90
52034;DHT22;38045;52.988;6.536;2023-06-19T02:31:22;21.80;94.80
52034;DHT22;38045;52.988;6.536;2023-06-19T02:33:47;21.70;94.80
52034;DHT22;38045;52.988;6.536;2023-06-19T02:36:13;21.80;94.70
52034;DHT22;38045;52.988;6.536;2023-06-19T02:38:45;21.80;94.70
52034;DHT22;38045;52.988;6.536;2023-06-19T02:41:11;21.80;94.70
52034;DHT22;38045;52.988;6.536;2023-06-19T02:43:37;21.70;94.80
52034;DHT22;38045;52.988;6.536;2023-06-19T02:46:02;21.70;94.80
52034;DHT22;38045;52.988;6.536;2023-06-19T02:48:28;21.80;94.70
52034;DHT22;38045;52.988;6.536;2023-06-19T02:50:53;21.70;94.70
52034;DHT22;38045;52.988;6.536;2023-06-19T02:53:19;21.70;94.70
52034;DHT22;38045;52.988;6.536;2023-06-19T02:55:44;21.60;94.80
52034;DHT22;38045;52.988;6.536;2023-06-19T02:58:10;21.60;94.90
52034;DHT22;38045;52.988;6.536;2023-06-19T03:00:36;21.70;94.90
52034;DHT22;38045;52.988;6.536;2023-06-19T03:03:01;21.70;95.00
52034;DHT22;38045;52.988;6.536;2023-06-19T03:05:27;21.70;95.10
52034;DHT22;38045;52.988;6.536;2023-06-19T03:07:52;21.80;95.10
52034;DHT22;38045;52.988;6.536;2023-06-19T03:10:18;21.70;95.10
52034;DHT22;38045;52.988;6.536;2023-06-19T03:12:44;21.80;95.30
52034;DHT22;38045;52.988;6.536;2023-06-19T03:15:09;21.80;95.30
52034;DHT22;38045;52.988;6.536;2023-06-19T03:17:35;21.80;95.40
52034;DHT22;38045;52.988;6.536;2023-06-19T03:20:01;21.80;95.50
52034;DHT22;38045;52.988;6.536;2023-06-19T03:22:27;21.70;95.60
52034;DHT22;38045;52.988;6.536;2023-06-19T03:24:52;21.80;95.50
52034;DHT22;38045;52.988;6.536;2023-06-19T03:27:18;21.90;95.80
52034;DHT22;38045;52.988;6.536;2023-06-19T03:29:44;21.90;95.70
52034;DHT22;38045;52.988;6.536;2023-06-19T03:32:09;21.90;95.80
52034;DHT22;38045;52.988;6.536;2023-06-19T03:34:35;21.80;95.80
52034;DHT22;38045;52.988;6.536;2023-06-19T03:37:00;21.90;96.30
52034;DHT22;38045;52.988;6.536;2023-06-19T03:39:26;21.90;96.20
52034;DHT22;38045;52.988;6.536;2023-06-19T03:41:51;21.90;96.40
52034;DHT22;38045;52.988;6.536;2023-06-19T03:44:17;21.90;96.40
52034;DHT22;38045;52.988;6.536;2023-06-19T03:46:42;21.90;96.50
52034;DHT22;38045;52.988;6.536;2023-06-19T03:49:08;21.90;96.70
52034;DHT22;38045;52.988;6.536;2023-06-19T03:51:35;21.90;97.10
52034;DHT22;38045;52.988;6.536;2023-06-19T03:54:00;21.80;96.90
52034;DHT22;38045;52.988;6.536;2023-06-19T03:56:27;21.80;97.30
52034;DHT22;38045;52.988;6.536;2023-06-19T03:58:52;21.80;97.30
52034;DHT22;38045;52.988;6.536;2023-06-19T04:01:18;21.70;97.50
52034;DHT22;38045;52.988;6.536;2023-06-19T04:03:43;21.70;97.60
52034;DHT22;38045;52.988;6.536;2023-06-19T04:06:09;21.60;98.20
52034;DHT22;38045;52.988;6.536;2023-06-19T04:08:35;21.60;98.00
52034;DHT22;38045;52.988;6.536;2023-06-19T04:11:00;21.50;98.70
52034;DHT22;38045;52.988;6.536;2023-06-19T04:13:26;21.50;98.50
52034;DHT22;38045;52.988;6.536;2023-06-19T04:15:52;21.40;98.80
52034;DHT22;38045;52.988;6.536;2023-06-19T04:18:17;21.40;98.90
52034;DHT22;38045;52.988;6.536;2023-06-19T04:20:43;21.40;99.20
52034;DHT22;38045;52.988;6.536;2023-06-19T04:23:09;21.40;99.30
52034;DHT22;38045;52.988;6.536;2023-06-19T04:25:34;21.30;99.40
52034;DHT22;38045;52.988;6.536;2023-06-19T04:28:00;21.30;99.70
52034;DHT22;38045;52.988;6.536;2023-06-19T04:30:29;21.20;99.80
52034;DHT22;38045;52.988;6.536;2023-06-19T04:32:54;21.20;99.90
52034;DHT22;38045;52.988;6.536;2023-06-19T04:35:20;21.20;99.90
52034;DHT22;38045;52.988;6.536;2023-06-19T04:37:46;21.10;99.90
52034;DHT22;38045;52.988;6.536;2023-06-19T04:40:14;21.10;99.90
52034;DHT22;38045;52.988;6.536;2023-06-19T04:42:39;21.20;99.90
52034;DHT22;38045;52.988;6.536;2023-06-19T04:45:05;21.20;99.90
52034;DHT22;38045;52.988;6.536;2023-06-19T04:47:33;21.20;99.90
52034;DHT22;38045;52.988;6.536;2023-06-19T04:49:59;21.20;99.90
52034;DHT22;38045;52.988;6.536;2023-06-19T04:52:25;21.10;99.90
52034;DHT22;38045;52.988;6.536;2023-06-19T04:54:51;21.00;99.90
52034;DHT22;38045;52.988;6.536;2023-06-19T04:57:16;21.10;99.90
52034;DHT22;38045;52.988;6.536;2023-06-19T04:59:43;21.00;99.90
52034;DHT22;38045;52.988;6.536;2023-06-19T05:02:10;21.00;99.90
52034;DHT22;38045;52.988;6.536;2023-06-19T05:04:35;21.00;99.90
52034;DHT22;38045;52.988;6.536;2023-06-19T05:07:01;20.90;99.90
52034;DHT22;38045;52.988;6.536;2023-06-19T05:09:28;21.00;99.90
52034;DHT22;38045;52.988;6.536;2023-06-19T05:11:53;20.90;99.90
52034;DHT22;38045;52.988;6.536;2023-06-19T05:14:19;20.90;99.90
52034;DHT22;38045;52.988;6.536;2023-06-19T05:16:45;20.90;99.90
52034;DHT22;38045;52.988;6.536;2023-06-19T05:19:10;20.90;99.90
52034;DHT22;38045;52.988;6.536;2023-06-19T05:21:36;20.90;99.90
52034;DHT22;38045;52.988;6.536;2023-06-19T05:24:02;21.00;99.90
52034;DHT22;38045;52.988;6.536;2023-06-19T05:26:27;21.00;99.90
52034;DHT22;38045;52.988;6.536;2023-06-19T05:28:53;21.00;99.90
52034;DHT22;38045;52.988;6.536;2023-06-19T05:31:19;21.00;99.90
52034;DHT22;38045;52.988;6.536;2023-06-19T05:33:44;21.00;99.90
52034;DHT22;38045;52.988;6.536;2023-06-19T05:36:11;21.00;99.90
52034;DHT22;38045;52.988;6.536;2023-06-19T05:38:36;21.00;99.90
52034;DHT22;38045;52.988;6.536;2023-06-19T05:41:02;21.00;99.90
52034;DHT22;38045;52.988;6.536;2023-06-19T05:43:28;21.00;99.90
52034;DHT22;38045;52.988;6.536;2023-06-19T05:45:54;21.00;99.90
52034;DHT22;38045;52.988;6.536;2023-06-19T05:48:21;21.00;99.90
52034;DHT22;38045;52.988;6.536;2023-06-19T05:50:47;21.00;99.90
52034;DHT22;38045;52.988;6.536;2023-06-19T05:53:13;21.00;99.90
52034;DHT22;38045;52.988;6.536;2023-06-19T05:55:38;20.90;99.90
52034;DHT22;38045;52.988;6.536;2023-06-19T05:58:04;20.90;99.90
52034;DHT22;38045;52.988;6.536;2023-06-19T06:00:30;21.00;99.90
52034;DHT22;38045;52.988;6.536;2023-06-19T06:02:57;21.00;99.90
52034;DHT22;38045;52.988;6.536;2023-06-19T06:05:26;20.90;99.90
52034;DHT22;38045;52.988;6.536;2023-06-19T06:07:52;20.80;99.90
52034;DHT22;38045;52.988;6.536;2023-06-19T06:10:20;21.00;99.90
52034;DHT22;38045;52.988;6.536;2023-06-19T06:12:46;20.90;99.90
52034;DHT22;38045;52.988;6.536;2023-06-19T06:15:11;20.90;99.90
52034;DHT22;38045;52.988;6.536;2023-06-19T06:17:37;20.90;99.90
52034;DHT22;38045;52.988;6.536;2023-06-19T06:20:03;21.00;99.90
52034;DHT22;38045;52.988;6.536;2023-06-19T06:22:34;21.00;99.90
52034;DHT22;38045;52.988;6.536;2023-06-19T06:25:00;21.00;99.90
52034;DHT22;38045;52.988;6.536;2023-06-19T06:27:26;21.00;99.90
52034;DHT22;38045;52.988;6.536;2023-06-19T06:29:51;21.00;99.90
52034;DHT22;38045;52.988;6.536;2023-06-19T06:32:17;21.00;99.90
52034;DHT22;38045;52.988;6.536;2023-06-19T06:34:43;21.00;99.90
52034;DHT22;38045;52.988;6.536;2023-06-19T06:37:09;20.90;99.90
52034;DHT22;38045;52.988;6.536;2023-06-19T06:39:35;20.90;99.90
52034;DHT22;38045;52.988;6.536;2023-06-19T06:42:00;20.80;99.90
52034;DHT22;38045;52.988;6.536;2023-06-19T06:44:26;20.80;99.90
52034;DHT22;38045;52.988;6.536;2023-06-19T06:46:52;20.70;99.90
52034;DHT22;38045;52.988;6.536;2023-06-19T06:49:17;20.70;99.90
52034;DHT22;38045;52.988;6.536;2023-06-19T06:51:43;20.70;99.90
52034;DHT22;38045;52.988;6.536;2023-06-19T06:54:09;20.60;99.90
52034;DHT22;38045;52.988;6.536;2023-06-19T06:56:35;20.50;99.90
52034;DHT22;38045;52.988;6.536;2023-06-19T06:59:01;20.60;99.90
52034;DHT22;38045;52.988;6.536;2023-06-19T07:01:27;20.50;99.90
52034;DHT22;38045;52.988;6.536;2023-06-19T07:03:52;20.50;99.90
52034;DHT22;38045;52.988;6.536;2023-06-19T07:06:19;20.50;99.90
52034;DHT22;38045;52.988;6.536;2023-06-19T07:08:44;20.40;99.90
52034;DHT22;38045;52.988;6.536;2023-06-19T07:11:13;20.40;99.90
52034;DHT22;38045;52.988;6.536;2023-06-19T07:13:39;20.40;99.90
52034;DHT22;38045;52.988;6.536;2023-06-19T07:16:07;20.40;99.90
52034;DHT22;38045;52.988;6.536;2023-06-19T07:18:32;20.40;99.90
52034;DHT22;38045;52.988;6.536;2023-06-19T07:21:00;20.40;99.90
52034;DHT22;38045;52.988;6.536;2023-06-19T07:23:26;20.40;99.90
52034;DHT22;38045;52.988;6.536;2023-06-19T07:25:52;20.40;99.90
52034;DHT22;38045;52.988;6.536;2023-06-19T07:28:17;20.50;99.90
52034;DHT22;38045;52.988;6.536;2023-06-19T07:30:43;20.50;99.90
52034;DHT22;38045;52.988;6.536;2023-06-19T07:33:09;20.50;99.90
52034;DHT22;38045;52.988;6.536;2023-06-19T07:35:38;20.40;99.90
52034;DHT22;38045;52.988;6.536;2023-06-19T07:38:03;20.50;99.90
52034;DHT22;38045;52.988;6.536;2023-06-19T07:40:29;20.40;99.90
52034;DHT22;38045;52.988;6.536;2023-06-19T07:42:54;20.40;99.90
52034;DHT22;38045;52.988;6.536;2023-06-19T07:45:20;20.40;99.90
52034;DHT22;38045;52.988;6.536;2023-06-19T07:47:56;20.40;99.90
52034;DHT22;38045;52.988;6.536;2023-06-19T07:50:22;20.30;99.90
52034;DHT22;38045;52.988;6.536;2023-06-19T07:52:48;20.40;99.90
52034;DHT22;38045;52.988;6.536;2023-06-19T07:55:13;20.40;99.90
52034;DHT22;38045;52.988;6.536;2023-06-19T07:57:39;20.30;99.90
52034;DHT22;38045;52.988;6.536;2023-06-19T08:00:07;20.40;99.90
52034;DHT22;38045;52.988;6.536;2023-06-19T08:02:37;20.30;99.90
52034;DHT22;38045;52.988;6.536;2023-06-19T08:05:02;20.30;99.90
52034;DHT22;38045;52.988;6.536;2023-06-19T08:07:28;20.30;99.90
52034;DHT22;38045;52.988;6.536;2023-06-19T08:09:54;20.20;99.90
52034;DHT22;38045;52.988;6.536;2023-06-19T08:12:19;20.20;99.90
52034;DHT22;38045;52.988;6.536;2023-06-19T08:14:45;20.20;99.90
52034;DHT22;38045;52.988;6.536;2023-06-19T08:17:10;20.20;99.90
52034;DHT22;38045;52.988;6.536;2023-06-19T08:19:36;20.20;99.90
52034;DHT22;38045;52.988;6.536;2023-06-19T08:22:05;20.20;99.90
52034;DHT22;38045;52.988;6.536;2023-06-19T08:24:31;20.20;99.90
52034;DHT22;38045;52.988;6.536;2023-06-19T08:26:56;20.30;99.90
52034;DHT22;38045;52.988;6.536;2023-06-19T08:29:22;20.30;99.90
52034;DHT22;38045;52.988;6.536;2023-06-19T08:31:48;20.20;99.90
52034;DHT22;38045;52.988;6.536;2023-06-19T08:34:14;20.30;99.90
52034;DHT22;38045;52.988;6.536;2023-06-19T08:36:39;20.20;99.90
52034;DHT22;38045;52.988;6.536;2023-06-19T08:39:05;20.20;99.90
52034;DHT22;38045;52.988;6.536;2023-06-19T08:41:33;20.20;99.90
52034;DHT22;38045;52.988;6.536;2023-06-19T08:43:59;20.20;99.90
52034;DHT22;38045;52.988;6.536;2023-06-19T08:46:25;20.10;99.90
52034;DHT22;38045;52.988;6.536;2023-06-19T08:48:50;20.10;99.90
52034;DHT22;38045;52.988;6.536;2023-06-19T08:51:16;20.10;99.90
52034;DHT22;38045;52.988;6.536;2023-06-19T08:53:55;20.00;99.90
52034;DHT22;38045;52.988;6.536;2023-06-19T08:56:21;19.90;99.90
52034;DHT22;38045;52.988;6.536;2023-06-19T08:58:47;20.00;99.90
52034;DHT22;38045;52.988;6.536;2023-06-19T09:01:17;19.90;99.90
52034;DHT22;38045;52.988;6.536;2023-06-19T09:03:42;20.00;99.90
52034;DHT22;38045;52.988;6.536;2023-06-19T09:06:09;19.90;99.90
52034;DHT22;38045;52.988;6.536;2023-06-19T09:08:35;20.00;99.90
52034;DHT22;38045;52.988;6.536;2023-06-19T09:11:02;20.00;99.90
52034;DHT22;38045;52.988;6.536;2023-06-19T09:13:29;20.20;99.90
52034;DHT22;38045;52.988;6.536;2023-06-19T09:16:07;20.50;99.90
52034;DHT22;38045;52.988;6.536;2023-06-19T09:18:47;20.60;99.90
52034;DHT22;38045;52.988;6.536;2023-06-19T09:21:17;20.90;99.90
52034;DHT22;38045;52.988;6.536;2023-06-19T09:23:44;21.00;99.90
52034;DHT22;38045;52.988;6.536;2023-06-19T09:26:10;21.00;99.90
52034;DHT22;38045;52.988;6.536;2023-06-19T09:28:40;21.00;99.90
52034;DHT22;38045;52.988;6.536;2023-06-19T09:31:07;20.90;99.90
52034;DHT22;38045;52.988;6.536;2023-06-19T09:33:35;20.80;99.90
52034;DHT22;38045;52.988;6.536;2023-06-19T09:36:02;20.80;99.90
52034;DHT22;38045;52.988;6.536;2023-06-19T09:38:33;20.80;99.90
52034;DHT22;38045;52.988;6.536;2023-06-19T09:41:04;20.90;99.90
52034;DHT22;38045;52.988;6.536;2023-06-19T09:45:59;20.90;99.90
52034;DHT22;38045;52.988;6.536;2023-06-19T09:48:30;20.90;99.90
52034;DHT22;38045;52.988;6.536;2023-06-19T09:51:20;21.00;99.90
52034;DHT22;38045;52.988;6.536;2023-06-19T09:53:47;21.00;99.90
52034;DHT22;38045;52.988;6.536;2023-06-19T09:56:14;21.10;99.90
52034;DHT22;38045;52.988;6.536;2023-06-19T09:58:42;21.00;99.90
52034;DHT22;38045;52.988;6.536;2023-06-19T10:01:08;21.00;99.90
52034;DHT22;38045;52.988;6.536;2023-06-19T10:03:35;20.90;99.90
52034;DHT22;38045;52.988;6.536;2023-06-19T10:06:02;20.80;99.90
52034;DHT22;38045;52.988;6.536;2023-06-19T10:08:39;20.80;99.90
52034;DHT22;38045;52.988;6.536;2023-06-19T10:11:05;20.70;99.90
52034;DHT22;38045;52.988;6.536;2023-06-19T10:13:36;20.70;99.90
52034;DHT22;38045;52.988;6.536;2023-06-19T10:16:04;20.80;99.90
52034;DHT22;38045;52.988;6.536;2023-06-19T10:18:31;20.80;99.90
52034;DHT22;38045;52.988;6.536;2023-06-19T10:20:57;20.80;99.90
52034;DHT22;38045;52.988;6.536;2023-06-19T10:23:25;21.00;99.90
52034;DHT22;38045;52.988;6.536;2023-06-19T10:25:57;21.00;99.90
52034;DHT22;38045;52.988;6.536;2023-06-19T10:31:02;21.00;99.90
52034;DHT22;38045;52.988;6.536;2023-06-19T10:33:33;20.90;99.90
52034;DHT22;38045;52.988;6.536;2023-06-19T10:36:00;21.10;99.90
52034;DHT22;38045;52.988;6.536;2023-06-19T10:38:26;21.20;99.90
52034;DHT22;38045;52.988;6.536;2023-06-19T10:40:52;21.30;99.90
52034;DHT22;38045;52.988;6.536;2023-06-19T10:43:22;21.40;99.90
52034;DHT22;38045;52.988;6.536;2023-06-19T10:45:50;21.40;99.90
52034;DHT22;38045;52.988;6.536;2023-06-19T10:48:21;21.40;99.90
52034;DHT22;38045;52.988;6.536;2023-06-19T10:50:48;21.40;99.90
52034;DHT22;38045;52.988;6.536;2023-06-19T10:53:33;21.40;99.90
52034;DHT22;38045;52.988;6.536;2023-06-19T10:56:00;21.30;99.90
52034;DHT22;38045;52.988;6.536;2023-06-19T10:58:27;21.20;99.90
52034;DHT22;38045;52.988;6.536;2023-06-19T11:00:52;21.20;99.90
52034;DHT22;38045;52.988;6.536;2023-06-19T11:03:20;21.20;99.90
52034;DHT22;38045;52.988;6.536;2023-06-19T11:05:46;21.20;99.90
52034;DHT22;38045;52.988;6.536;2023-06-19T11:08:18;21.20;99.90
52034;DHT22;38045;52.988;6.536;2023-06-19T11:10:44;21.30;99.90
52034;DHT22;38045;52.988;6.536;2023-06-19T11:13:17;21.30;99.90
52034;DHT22;38045;52.988;6.536;2023-06-19T11:15:43;21.40;99.90
52034;DHT22;38045;52.988;6.536;2023-06-19T11:18:09;21.60;99.90
52034;DHT22;38045;52.988;6.536;2023-06-19T11:20:48;21.70;99.90
52034;DHT22;38045;52.988;6.536;2023-06-19T11:23:16;21.80;99.90
52034;DHT22;38045;52.988;6.536;2023-06-19T11:25:42;21.90;99.90
52034;DHT22;38045;52.988;6.536;2023-06-19T11:30:39;22.00;99.90
52034;DHT22;38045;52.988;6.536;2023-06-19T11:33:21;22.10;99.90
52034;DHT22;38045;52.988;6.536;2023-06-19T11:35:52;22.30;99.90
52034;DHT22;38045;52.988;6.536;2023-06-19T11:38:23;22.50;99.90
52034;DHT22;38045;52.988;6.536;2023-06-19T11:40:49;22.60;99.90
52034;DHT22;38045;52.988;6.536;2023-06-19T11:43:31;22.60;99.90
52034;DHT22;38045;52.988;6.536;2023-06-19T11:46:07;22.70;99.90
52034;DHT22;38045;52.988;6.536;2023-06-19T11:48:36;22.80;99.90
52034;DHT22;38045;52.988;6.536;2023-06-19T11:51:02;22.90;99.90
52034;DHT22;38045;52.988;6.536;2023-06-19T11:53:28;23.00;99.90
52034;DHT22;38045;52.988;6.536;2023-06-19T11:55:53;23.00;99.90
52034;DHT22;38045;52.988;6.536;2023-06-19T11:58:19;22.90;99.90
52034;DHT22;38045;52.988;6.536;2023-06-19T12:00:46;23.10;99.90
52034;DHT22;38045;52.988;6.536;2023-06-19T12:03:12;23.30;99.90
52034;DHT22;38045;52.988;6.536;2023-06-19T12:05:38;23.30;99.90
52034;DHT22;38045;52.988;6.536;2023-06-19T12:08:04;23.40;99.90
52034;DHT22;38045;52.988;6.536;2023-06-19T12:10:30;23.30;99.90
52034;DHT22;38045;52.988;6.536;2023-06-19T12:12:56;23.30;99.90
52034;DHT22;38045;52.988;6.536;2023-06-19T12:15:22;23.30;99.90
52034;DHT22;38045;52.988;6.536;2023-06-19T12:17:48;23.40;99.90
52034;DHT22;38045;52.988;6.536;2023-06-19T12:20:13;23.30;99.90
52034;DHT22;38045;52.988;6.536;2023-06-19T12:22:40;23.40;99.90
52034;DHT22;38045;52.988;6.536;2023-06-19T12:25:06;23.50;99.90
52034;DHT22;38045;52.988;6.536;2023-06-19T12:27:31;23.40;99.90
52034;DHT22;38045;52.988;6.536;2023-06-19T12:29:57;23.30;99.90
52034;DHT22;38045;52.988;6.536;2023-06-19T12:32:23;23.10;99.90
52034;DHT22;38045;52.988;6.536;2023-06-19T12:34:49;23.00;99.90
52034;DHT22;38045;52.988;6.536;2023-06-19T12:37:19;23.00;99.90
52034;DHT22;38045;52.988;6.536;2023-06-19T12:39:46;23.10;99.90
52034;DHT22;38045;52.988;6.536;2023-06-19T12:42:12;23.20;99.90
52034;DHT22;38045;52.988;6.536;2023-06-19T12:44:41;23.10;99.90
52034;DHT22;38045;52.988;6.536;2023-06-19T12:47:07;23.00;99.90
52034;DHT22;38045;52.988;6.536;2023-06-19T12:49:33;22.90;99.90
52034;DHT22;38045;52.988;6.536;2023-06-19T12:51:59;22.90;99.90
52034;DHT22;38045;52.988;6.536;2023-06-19T12:54:25;23.00;99.90
52034;DHT22;38045;52.988;6.536;2023-06-19T12:56:51;23.00;99.90
52034;DHT22;38045;52.988;6.536;2023-06-19T12:59:16;22.90;99.90
52034;DHT22;38045;52.988;6.536;2023-06-19T13:01:42;23.20;99.90
52034;DHT22;38045;52.988;6.536;2023-06-19T13:04:08;23.40;99.90
52034;DHT22;38045;52.988;6.536;2023-06-19T13:06:35;23.60;99.90
52034;DHT22;38045;52.988;6.536;2023-06-19T13:09:01;23.70;99.90
52034;DHT22;38045;52.988;6.536;2023-06-19T13:11:27;24.00;99.90
52034;DHT22;38045;52.988;6.536;2023-06-19T13:13:53;24.10;99.90
52034;DHT22;38045;52.988;6.536;2023-06-19T13:16:19;24.10;99.90
52034;DHT22;38045;52.988;6.536;2023-06-19T13:18:45;24.00;99.50
52034;DHT22;38045;52.988;6.536;2023-06-19T13:21:11;23.90;99.90
52034;DHT22;38045;52.988;6.536;2023-06-19T13:23:37;24.00;99.90
52034;DHT22;38045;52.988;6.536;2023-06-19T13:26:03;24.20;99.80
52034;DHT22;38045;52.988;6.536;2023-06-19T13:28:28;24.30;99.50
52034;DHT22;38045;52.988;6.536;2023-06-19T13:30:54;24.20;99.10
52034;DHT22;38045;52.988;6.536;2023-06-19T13:33:19;24.00;98.90
52034;DHT22;38045;52.988;6.536;2023-06-19T13:35:45;24.00;99.70
52034;DHT22;38045;52.988;6.536;2023-06-19T13:38:11;24.10;98.70
52034;DHT22;38045;52.988;6.536;2023-06-19T13:40:36;24.20;98.90
52034;DHT22;38045;52.988;6.536;2023-06-19T13:43:02;24.40;99.30
52034;DHT22;38045;52.988;6.536;2023-06-19T13:45:29;24.60;98.70
52034;DHT22;38045;52.988;6.536;2023-06-19T13:47:56;24.80;98.60
52034;DHT22;38045;52.988;6.536;2023-06-19T13:50:21;24.90;98.10
52034;DHT22;38045;52.988;6.536;2023-06-19T13:52:49;24.90;97.80
52034;DHT22;38045;52.988;6.536;2023-06-19T13:55:15;24.90;97.40
52034;DHT22;38045;52.988;6.536;2023-06-19T13:57:41;24.70;97.60
52034;DHT22;38045;52.988;6.536;2023-06-19T14:00:08;24.70;97.80
52034;DHT22;38045;52.988;6.536;2023-06-19T14:02:36;24.50;98.10
52034;DHT22;38045;52.988;6.536;2023-06-19T14:05:04;24.50;98.10
52034;DHT22;38045;52.988;6.536;2023-06-19T14:07:32;24.60;97.80
52034;DHT22;38045;52.988;6.536;2023-06-19T14:09:57;24.50;97.80
52034;DHT22;38045;52.988;6.536;2023-06-19T14:12:23;24.40;98.20
52034;DHT22;38045;52.988;6.536;2023-06-19T14:14:48;24.50;98.10
52034;DHT22;38045;52.988;6.536;2023-06-19T14:17:14;24.60;98.40
52034;DHT22;38045;52.988;6.536;2023-06-19T14:19:40;24.70;98.10
52034;DHT22;38045;52.988;6.536;2023-06-19T14:22:06;24.80;98.50
52034;DHT22;38045;52.988;6.536;2023-06-19T14:24:31;25.00;97.50
52034;DHT22;38045;52.988;6.536;2023-06-19T14:26:57;25.00;97.40
52034;DHT22;38045;52.988;6.536;2023-06-19T14:29:22;25.10;97.10
52034;DHT22;38045;52.988;6.536;2023-06-19T14:31:51;25.10;97.40
52034;DHT22;38045;52.988;6.536;2023-06-19T14:34:17;25.10;97.00
52034;DHT22;38045;52.988;6.536;2023-06-19T14:36:42;25.20;97.10
52034;DHT22;38045;52.988;6.536;2023-06-19T14:39:08;25.20;97.20
52034;DHT22;38045;52.988;6.536;2023-06-19T14:41:34;25.20;96.30
52034;DHT22;38045;52.988;6.536;2023-06-19T14:43:59;25.20;96.60
52034;DHT22;38045;52.988;6.536;2023-06-19T14:46:25;25.20;96.80
52034;DHT22;38045;52.988;6.536;2023-06-19T14:48:51;25.30;96.10
52034;DHT22;38045;52.988;6.536;2023-06-19T14:51:16;25.20;96.20
52034;DHT22;38045;52.988;6.536;2023-06-19T14:53:42;25.20;96.20
52034;DHT22;38045;52.988;6.536;2023-06-19T14:56:07;25.20;95.30
52034;DHT22;38045;52.988;6.536;2023-06-19T14:58:33;25.10;95.90
52034;DHT22;38045;52.988;6.536;2023-06-19T15:00:59;25.00;95.60
52034;DHT22;38045;52.988;6.536;2023-06-19T15:03:24;25.10;95.30
52034;DHT22;38045;52.988;6.536;2023-06-19T15:05:50;25.00;95.30
52034;DHT22;38045;52.988;6.536;2023-06-19T15:08:16;25.00;95.40
52034;DHT22;38045;52.988;6.536;2023-06-19T15:10:47;25.00;95.40
52034;DHT22;38045;52.988;6.536;2023-06-19T15:13:12;25.00;94.50
52034;DHT22;38045;52.988;6.536;2023-06-19T15:15:38;25.00;93.60
52034;DHT22;38045;52.988;6.536;2023-06-19T15:18:04;25.20;94.20
52034;DHT22;38045;52.988;6.536;2023-06-19T15:20:29;25.10;93.70
52034;DHT22;38045;52.988;6.536;2023-06-19T15:22:55;25.00;93.40
52034;DHT22;38045;52.988;6.536;2023-06-19T15:25:20;25.00;93.00
52034;DHT22;38045;52.988;6.536;2023-06-19T15:27:46;25.00;93.00
52034;DHT22;38045;52.988;6.536;2023-06-19T15:30:12;25.10;93.10
52034;DHT22;38045;52.988;6.536;2023-06-19T15:32:39;25.20;92.30
52034;DHT22;38045;52.988;6.536;2023-06-19T15:35:05;25.20;93.20
52034;DHT22;38045;52.988;6.536;2023-06-19T15:37:30;25.20;93.10